Time;durP1;ratioP1;P1;durP2;ratioP2;P2;SDS_P1;SDS_P2;PMS_P1;PMS_P2;Temp;Humidity;BMP_temperature;BMP_pressure;BME280_temperature;BME280_humidity;BME280_pressure;Samples;Min_cycle;Max_cycle;Signal;HPM_P1;HPM_P2
2022/10/19 00:01:01;;;;;;;3.35;2.30;;;21.50;57.00;;;;;;5086723;28;45193;-69
2022/10/19 00:03:30;;;;;;;3.38;2.00;;;21.50;57.10;;;;;;5086161;28;45473;-70
2022/10/19 00:05:57;;;;;;;3.78;2.03;;;21.50;57.10;;;;;;5086242;28;45194;-70
2022/10/19 00:08:23;;;;;;;2.67;2.25;;;21.50;57.10;;;;;;5085356;28;45189;-70
2022/10/19 00:10:50;;;;;;;3.17;2.20;;;21.50;57.10;;;;;;5086634;28;45395;-70
2022/10/19 00:13:17;;;;;;;4.18;2.22;;;21.50;57.10;;;;;;5086423;28;46907;-70
2022/10/19 00:15:45;;;;;;;3.22;2.17;;;21.40;57.10;;;;;;5086171;28;45389;-70
2022/10/19 00:18:11;;;;;;;3.28;2.30;;;21.40;57.10;;;;;;5086475;28;45325;-70
2022/10/19 00:20:40;;;;;;;4.20;2.28;;;21.40;57.00;;;;;;5086429;28;45135;-70
2022/10/19 00:23:07;;;;;;;3.67;2.47;;;21.40;57.10;;;;;;5086136;28;45333;-70
2022/10/19 00:25:33;;;;;;;4.68;2.20;;;21.40;57.20;;;;;;5086319;28;45364;-70
2022/10/19 00:28:00;;;;;;;2.80;2.10;;;21.40;57.10;;;;;;5086291;28;45299;-70
2022/10/19 00:30:27;;;;;;;3.38;1.90;;;21.40;57.00;;;;;;5083598;28;45221;-70
2022/10/19 00:32:54;;;;;;;3.33;2.10;;;21.30;57.20;;;;;;5085249;28;46444;-70
2022/10/19 00:35:21;;;;;;;2.65;1.98;;;21.30;57.10;;;;;;5086365;28;45195;-70
2022/10/19 00:37:50;;;;;;;3.75;2.35;;;21.30;57.20;;;;;;5086041;28;45253;-69
2022/10/19 00:40:17;;;;;;;3.20;2.03;;;21.30;57.20;;;;;;5086250;28;45221;-69
2022/10/19 00:42:44;;;;;;;2.70;2.17;;;21.30;57.20;;;;;;5085063;28;46234;-69
2022/10/19 00:45:15;;;;;;;2.78;1.65;;;21.20;57.20;;;;;;5085774;28;45239;-69
2022/10/19 00:47:42;;;;;;;2.10;1.90;;;21.30;57.20;;;;;;5085846;28;45287;-69
2022/10/19 00:50:09;;;;;;;3.03;1.88;;;21.20;57.80;;;;;;5086341;28;45370;-69
2022/10/19 00:52:36;;;;;;;3.10;1.83;;;21.20;57.20;;;;;;5085542;28;45256;-69
2022/10/19 00:55:05;;;;;;;3.90;2.03;;;21.20;57.20;;;;;;5085615;28;45343;-70
2022/10/19 00:57:32;;;;;;;2.30;2.10;;;21.20;57.20;;;;;;5085731;28;45380;-70
2022/10/19 00:59:59;;;;;;;2.15;1.95;;;21.20;57.20;;;;;;5086174;28;45371;-70
2022/10/19 01:02:26;;;;;;;1.58;1.48;;;21.20;57.20;;;;;;5085583;28;45211;-70
2022/10/19 01:04:53;;;;;;;2.47;1.90;;;21.20;57.20;;;;;;5085937;28;45279;-71
2022/10/19 01:07:20;;;;;;;4.05;2.03;;;21.10;57.70;;;;;;5085654;28;45292;-70
2022/10/19 01:09:47;;;;;;;3.08;2.60;;;21.10;57.30;;;;;;5085978;28;45268;-70
2022/10/19 01:12:25;;;;;;;2.47;2.08;;;21.10;57.20;;;;;;5085450;28;45212;-71
2022/10/19 01:15:01;;;;;;;2.13;1.60;;;21.10;57.30;;;;;;5085601;28;45230;-70
2022/10/19 01:17:32;;;;;;;2.95;2.22;;;21.10;57.30;;;;;;5085583;28;45509;-69
2022/10/19 01:20:16;;;;;;;2.13;1.92;;;21.10;57.30;;;;;;5087863;27;45381;-70
2022/10/19 01:22:51;;;;;;;2.45;2.00;;;21.00;57.30;;;;;;5088711;28;46325;-70
2022/10/19 01:25:21;;;;;;;4.07;2.30;;;21.10;57.40;;;;;;5088667;28;45332;-70
2022/10/19 01:27:57;;;;;;;2.28;1.95;;;21.00;57.30;;;;;;5086141;28;45177;-70
2022/10/19 01:30:34;;;;;;;2.90;1.92;;;21.00;57.40;;;;;;5089046;28;45333;-70
2022/10/19 01:33:05;;;;;;;2.33;1.88;;;21.00;57.40;;;;;;5088601;28;46424;-70
2022/10/19 01:35:35;;;;;;;2.65;2.05;;;21.00;57.40;;;;;;5088624;28;45201;-70
2022/10/19 01:38:07;;;;;;;2.25;1.98;;;21.00;57.50;;;;;;5088744;28;45418;-71
2022/10/19 01:40:40;;;;;;;2.53;1.90;;;21.00;57.50;;;;;;5088808;28;45451;-70
2022/10/19 01:43:11;;;;;;;2.35;1.92;;;21.00;57.50;;;;;;5087906;28;46384;-69
2022/10/19 01:45:41;;;;;;;2.90;2.00;;;20.90;57.50;;;;;;5087810;28;45306;-70
2022/10/19 01:48:10;;;;;;;3.13;2.20;;;20.90;58.10;;;;;;5088274;28;45253;-70
2022/10/19 01:50:39;;;;;;;3.15;2.13;;;20.90;57.60;;;;;;5088693;28;45314;-70
2022/10/19 01:53:07;;;;;;;2.85;2.20;;;20.90;57.50;;;;;;5088171;28;46404;-71
2022/10/19 01:55:33;;;;;;;4.68;2.20;;;20.90;58.20;;;;;;5088555;28;45369;-71
2022/10/19 01:58:04;;;;;;;2.58;2.38;;;20.90;57.60;;;;;;5088380;28;45280;-70
2022/10/19 02:00:31;;;;;;;2.33;2.10;;;20.90;57.70;;;;;;5088683;28;45447;-69
2022/10/19 02:02:59;;;;;;;2.72;1.92;;;20.90;57.70;;;;;;5088030;28;46396;-70
2022/10/19 02:05:27;;;;;;;3.35;2.00;;;20.90;57.60;;;;;;5088240;28;45333;-70
2022/10/19 02:07:56;;;;;;;2.10;1.90;;;20.80;57.70;;;;;;5088215;28;45194;-70
2022/10/19 02:10:23;;;;;;;3.10;2.30;;;20.90;57.80;;;;;;5088207;28;45392;-69
2022/10/19 02:12:49;;;;;;;2.03;1.90;;;20.80;57.80;;;;;;5087902;28;45273;-70
2022/10/19 02:15:19;;;;;;;3.28;1.95;;;20.80;57.80;;;;;;5087829;28;45338;-70
2022/10/19 02:17:47;;;;;;;3.15;1.98;;;20.80;57.90;;;;;;5088435;28;45187;-70
2022/10/19 02:20:15;;;;;;;2.65;2.05;;;20.80;57.80;;;;;;5088228;28;45400;-70
2022/10/19 02:22:42;;;;;;;2.30;2.10;;;20.80;57.90;;;;;;5087739;28;46382;-69
2022/10/19 02:25:09;;;;;;;2.10;1.95;;;20.80;57.90;;;;;;5087840;28;45155;-70
2022/10/19 02:27:37;;;;;;;2.15;1.75;;;20.80;58.00;;;;;;5087955;28;45135;-70
2022/10/19 02:30:05;;;;;;;2.63;2.30;;;20.80;57.90;;;;;;5087728;27;45288;-70
2022/10/19 02:32:31;;;;;;;3.45;2.10;;;20.80;58.00;;;;;;5087312;28;46335;-70
2022/10/19 02:34:58;;;;;;;2.17;1.98;;;20.80;58.00;;;;;;5087100;28;45233;-70
2022/10/19 02:37:26;;;;;;;2.17;1.98;;;20.80;58.70;;;;;;5088042;28;45210;-70
2022/10/19 02:39:53;;;;;;;2.17;1.80;;;20.80;58.00;;;;;;5088120;28;45566;-70
2022/10/19 02:42:22;;;;;;;2.28;2.00;;;20.70;57.90;;;;;;5087342;28;46509;-71
2022/10/19 02:44:51;;;;;;;3.00;2.20;;;20.80;58.10;;;;;;5087458;28;45202;-70
2022/10/19 02:47:18;;;;;;;2.92;2.10;;;20.70;58.10;;;;;;5087704;28;45182;-70
2022/10/19 02:49:45;;;;;;;1.77;1.63;;;20.70;58.10;;;;;;5087893;28;45450;-71
2022/10/19 02:52:12;;;;;;;2.40;1.95;;;20.70;58.10;;;;;;5087651;28;46320;-71
2022/10/19 02:54:41;;;;;;;2.10;2.00;;;20.70;58.10;;;;;;5087505;28;45273;-71
2022/10/19 02:57:15;;;;;;;2.35;2.03;;;20.70;58.20;;;;;;5087519;28;45206;-72
2022/10/19 02:59:42;;;;;;;2.65;2.00;;;20.70;58.60;;;;;;5088110;28;45519;-72
2022/10/19 03:02:08;;;;;;;2.92;2.17;;;20.70;58.20;;;;;;5087471;28;47634;-72
2022/10/19 03:04:35;;;;;;;2.17;1.95;;;20.70;58.10;;;;;;5087285;28;45257;-72
2022/10/19 03:07:02;;;;;;;2.00;1.80;;;20.70;58.20;;;;;;5087492;28;45298;-72
2022/10/19 03:09:29;;;;;;;2.13;1.90;;;20.70;58.20;;;;;;5087654;28;45144;-72
2022/10/19 03:11:57;;;;;;;2.47;1.88;;;20.70;58.20;;;;;;5087099;28;46416;-72
2022/10/19 03:14:24;;;;;;;1.77;1.67;;;20.70;58.20;;;;;;5087204;28;45422;-72
2022/10/19 03:16:51;;;;;;;2.38;1.90;;;20.60;58.10;;;;;;5087490;28;45295;-72
2022/10/19 03:19:18;;;;;;;3.45;1.85;;;20.70;58.20;;;;;;5087292;28;45424;-72
2022/10/19 03:21:44;;;;;;;2.20;2.00;;;20.70;58.30;;;;;;5086279;28;45759;-72
2022/10/19 03:24:12;;;;;;;2.03;1.80;;;20.60;58.30;;;;;;5086695;28;45181;-72
2022/10/19 03:26:39;;;;;;;2.58;1.80;;;20.60;58.30;;;;;;5087015;28;45383;-72
2022/10/19 03:29:07;;;;;;;2.55;2.00;;;20.60;58.30;;;;;;5087386;28;45307;-72
2022/10/19 03:31:34;;;;;;;2.80;2.05;;;20.60;58.30;;;;;;5086703;28;45263;-72
2022/10/19 03:34:01;;;;;;;2.03;1.83;;;20.60;58.40;;;;;;5086966;28;45213;-72
2022/10/19 03:36:29;;;;;;;2.10;1.90;;;20.60;58.30;;;;;;5086893;28;45135;-73
2022/10/19 03:38:56;;;;;;;1.92;1.83;;;20.60;58.40;;;;;;5087313;28;45305;-72
2022/10/19 03:41:24;;;;;;;1.90;1.80;;;20.60;58.40;;;;;;5086495;28;46421;-72
2022/10/19 03:43:51;;;;;;;2.38;1.90;;;20.60;59.00;;;;;;5086067;28;45204;-72
2022/10/19 03:46:19;;;;;;;2.60;1.92;;;20.60;58.50;;;;;;5086798;28;45276;-71
2022/10/19 03:48:46;;;;;;;2.03;1.83;;;20.60;58.40;;;;;;5086817;28;45242;-71
2022/10/19 03:51:14;;;;;;;2.10;1.90;;;20.60;58.50;;;;;;5086602;28;46401;-72
2022/10/19 03:53:41;;;;;;;2.22;2.03;;;20.60;58.50;;;;;;5086473;28;45222;-72
2022/10/19 03:56:09;;;;;;;1.73;1.63;;;20.60;58.50;;;;;;5086725;28;45191;-71
2022/10/19 03:58:36;;;;;;;2.00;1.90;;;20.60;58.60;;;;;;5086744;28;45483;-72
2022/10/19 04:01:07;;;;;;;2.63;1.80;;;20.50;59.10;;;;;;5086325;28;45301;-72
2022/10/19 04:03:35;;;;;;;2.05;1.88;;;20.60;58.50;;;;;;5086569;28;45190;-72
2022/10/19 04:06:03;;;;;;;1.90;1.77;;;20.60;58.50;;;;;;5086514;28;45372;-71
2022/10/19 04:08:29;;;;;;;1.83;1.73;;;20.50;58.50;;;;;;5086209;28;45539;-71
2022/10/19 04:11:00;;;;;;;1.95;1.83;;;20.50;58.50;;;;;;5085650;28;45238;-71
2022/10/19 04:13:27;;;;;;;1.77;1.67;;;20.50;58.70;;;;;;5086098;28;45372;-72
2022/10/19 04:15:54;;;;;;;2.05;1.88;;;20.50;58.60;;;;;;5086451;28;45385;-72
2022/10/19 04:18:20;;;;;;;2.35;1.65;;;20.50;58.60;;;;;;5086663;28;45186;-73
2022/10/19 04:20:49;;;;;;;2.17;1.98;;;20.50;58.70;;;;;;5086271;28;46411;-72
2022/10/19 04:23:15;;;;;;;1.70;1.60;;;20.50;58.70;;;;;;5086205;28;45372;-72
2022/10/19 04:25:42;;;;;;;1.83;1.73;;;20.40;58.60;;;;;;5086528;28;45420;-72
2022/10/19 04:28:09;;;;;;;2.25;1.90;;;20.50;58.60;;;;;;5086494;28;45257;-72
2022/10/19 04:30:36;;;;;;;1.70;1.60;;;20.50;58.70;;;;;;5085972;28;46368;-72
2022/10/19 04:33:03;;;;;;;2.05;1.83;;;20.40;58.70;;;;;;5086305;28;45279;-72
2022/10/19 04:35:30;;;;;;;1.90;1.80;;;20.50;58.80;;;;;;5085850;28;45430;-72
2022/10/19 04:37:58;;;;;;;1.90;1.60;;;20.40;58.80;;;;;;5086402;28;45365;-72
2022/10/19 04:40:25;;;;;;;1.98;1.77;;;20.40;58.80;;;;;;5085736;28;46334;-72
2022/10/19 04:42:52;;;;;;;1.95;1.85;;;20.50;58.80;;;;;;5086002;28;45176;-72
2022/10/19 04:45:19;;;;;;;1.70;1.60;;;20.40;58.80;;;;;;5086412;28;45295;-72
2022/10/19 04:47:46;;;;;;;1.95;1.77;;;20.40;58.80;;;;;;5086064;28;45365;-72
2022/10/19 04:50:15;;;;;;;1.80;1.70;;;20.40;58.70;;;;;;5085733;28;46728;-72
2022/10/19 04:52:44;;;;;;;1.98;1.73;;;20.40;58.70;;;;;;5085670;28;45269;-72
2022/10/19 04:55:12;;;;;;;1.80;1.70;;;20.40;58.80;;;;;;5087777;27;45295;-72
2022/10/19 04:57:39;;;;;;;1.80;1.70;;;20.40;58.80;;;;;;5089382;28;45213;-71
2022/10/19 05:00:07;;;;;;;1.80;1.70;;;20.40;58.80;;;;;;5086520;28;45751;-71
2022/10/19 05:02:34;;;;;;;1.40;1.30;;;20.40;58.80;;;;;;5089074;28;45345;-71
2022/10/19 05:05:01;;;;;;;1.70;1.60;;;20.40;59.50;;;;;;5086652;28;45327;-71
2022/10/19 05:07:28;;;;;;;2.10;1.80;;;20.40;58.90;;;;;;5088810;28;45378;-72
2022/10/19 05:09:55;;;;;;;1.90;1.80;;;20.40;58.80;;;;;;5088780;28;47394;-71
2022/10/19 05:12:23;;;;;;;1.70;1.60;;;20.40;58.90;;;;;;5088425;28;45134;-71
2022/10/19 05:14:50;;;;;;;2.10;2.00;;;20.30;58.80;;;;;;5088726;28;45350;-71
2022/10/19 05:17:16;;;;;;;1.70;1.60;;;20.40;58.90;;;;;;5088745;28;45404;-72
2022/10/19 05:19:43;;;;;;;2.13;1.70;;;20.30;58.90;;;;;;5088427;28;46471;-72
2022/10/19 05:22:10;;;;;;;1.55;1.40;;;20.30;58.90;;;;;;5088393;28;45223;-71
2022/10/19 05:24:37;;;;;;;1.73;1.63;;;20.30;59.00;;;;;;5088666;28;45286;-71
2022/10/19 05:27:04;;;;;;;1.70;1.60;;;20.30;59.00;;;;;;5088858;28;45202;-71
2022/10/19 05:29:32;;;;;;;1.60;1.50;;;20.30;59.00;;;;;;5088470;28;45439;-72
2022/10/19 05:31:59;;;;;;;1.50;1.40;;;20.30;59.00;;;;;;5088459;28;45292;-72
2022/10/19 05:34:26;;;;;;;1.55;1.40;;;20.30;59.10;;;;;;5088640;28;45177;-72
2022/10/19 05:36:53;;;;;;;2.00;1.80;;;20.30;59.10;;;;;;5088737;28;45205;-72
2022/10/19 05:39:20;;;;;;;1.65;1.55;;;20.20;59.10;;;;;;5088507;28;45395;-72
2022/10/19 05:41:47;;;;;;;1.67;1.58;;;20.30;59.10;;;;;;5088146;28;45319;-72
2022/10/19 05:44:15;;;;;;;1.80;1.70;;;20.30;59.10;;;;;;5088075;28;45302;-72
2022/10/19 05:46:43;;;;;;;1.70;1.60;;;20.20;59.10;;;;;;5088749;28;45185;-72
2022/10/19 05:49:10;;;;;;;1.90;1.80;;;20.20;59.10;;;;;;5087922;28;45217;-72
2022/10/19 05:51:37;;;;;;;1.65;1.55;;;20.20;59.10;;;;;;5088508;28;45365;-72
2022/10/19 05:54:04;;;;;;;1.45;1.38;;;20.20;59.10;;;;;;5088279;28;45308;-72
2022/10/19 05:56:32;;;;;;;1.60;1.50;;;20.20;59.10;;;;;;5088267;28;45161;-72
2022/10/19 05:58:59;;;;;;;1.52;1.42;;;20.20;59.10;;;;;;5088282;28;46376;-72
2022/10/19 06:01:26;;;;;;;1.70;1.60;;;20.20;59.10;;;;;;5087948;28;45291;-72
2022/10/19 06:03:55;;;;;;;1.70;1.60;;;20.20;59.10;;;;;;5088179;28;45302;-72
2022/10/19 06:06:22;;;;;;;1.40;1.30;;;20.20;59.10;;;;;;5086698;28;45189;-71
2022/10/19 06:08:49;;;;;;;3.15;1.50;;;20.20;59.10;;;;;;5087592;28;46715;-72
2022/10/19 06:11:17;;;;;;;1.70;1.60;;;20.20;59.20;;;;;;5087562;28;45426;-72
2022/10/19 06:13:44;;;;;;;1.60;1.50;;;20.20;59.20;;;;;;5087813;28;45328;-72
2022/10/19 06:16:12;;;;;;;1.60;1.50;;;20.20;59.30;;;;;;5087917;28;45567;-72
2022/10/19 06:18:39;;;;;;;1.65;1.55;;;20.10;59.10;;;;;;5087490;28;45490;-72
2022/10/19 06:21:08;;;;;;;1.67;1.58;;;20.20;59.20;;;;;;5087529;28;45374;-72
2022/10/19 06:23:44;;;;;;;1.63;1.52;;;20.20;59.80;;;;;;5087919;28;45277;-72
2022/10/19 06:26:12;;;;;;;2.55;1.67;;;20.20;59.20;;;;;;5087895;28;45404;-72
2022/10/19 06:28:39;;;;;;;1.75;1.65;;;20.10;59.10;;;;;;5087234;28;46408;-72
2022/10/19 06:31:06;;;;;;;1.88;1.77;;;20.10;59.10;;;;;;5087348;28;45377;-73
2022/10/19 06:33:33;;;;;;;1.60;1.50;;;20.10;59.20;;;;;;5087826;28;45359;-72
2022/10/19 06:36:07;;;;;;;1.73;1.63;;;20.10;59.80;;;;;;5087607;28;45382;-72
2022/10/19 06:38:34;;;;;;;1.80;1.70;;;20.10;59.20;;;;;;5087399;28;45320;-73
2022/10/19 06:41:00;;;;;;;1.52;1.40;;;20.10;59.20;;;;;;5087325;28;45318;-72
2022/10/19 06:43:27;;;;;;;1.80;1.70;;;20.10;59.20;;;;;;5087367;28;45207;-73
2022/10/19 06:45:54;;;;;;;2.35;1.42;;;20.10;59.20;;;;;;5087658;28;45306;-72
2022/10/19 06:48:21;;;;;;;1.70;1.60;;;20.10;59.10;;;;;;5085253;27;46422;-73
2022/10/19 06:50:55;;;;;;;1.65;1.55;;;20.10;59.30;;;;;;5087264;28;45510;-73
2022/10/19 06:53:28;;;;;;;1.70;1.60;;;20.10;59.20;;;;;;5087622;28;45250;-72
2022/10/19 06:55:57;;;;;;;2.05;1.85;;;20.10;59.20;;;;;;5087269;28;45618;-71
2022/10/19 06:58:24;;;;;;;1.60;1.50;;;20.10;59.30;;;;;;5086397;27;45304;-72
2022/10/19 07:00:55;;;;;;;1.90;1.80;;;20.10;59.60;;;;;;5087017;28;45300;-72
2022/10/19 07:03:22;;;;;;;1.90;1.80;;;20.10;59.30;;;;;;5087223;28;45396;-71
2022/10/19 07:05:53;;;;;;;1.73;1.63;;;20.10;59.20;;;;;;5087342;28;45280;-73
2022/10/19 07:08:20;;;;;;;1.52;1.42;;;20.10;59.20;;;;;;5086650;28;46324;-71
2022/10/19 07:10:51;;;;;;;1.67;1.58;;;20.10;59.10;;;;;;5087071;28;45320;-72
2022/10/19 07:13:18;;;;;;;1.73;1.60;;;20.10;59.00;;;;;;5086984;28;45196;-72
2022/10/19 07:15:45;;;;;;;1.60;1.50;;;20.20;59.10;;;;;;5087125;28;45376;-72
2022/10/19 07:18:12;;;;;;;1.83;1.73;;;20.10;59.00;;;;;;5086085;27;46384;-73
2022/10/19 07:20:38;;;;;;;2.17;1.55;;;20.20;59.10;;;;;;5086646;28;45364;-72
2022/10/19 07:23:05;;;;;;;2.45;1.88;;;20.20;59.20;;;;;;5086534;28;45288;-72
2022/10/19 07:25:32;;;;;;;2.70;1.60;;;20.20;59.10;;;;;;5086948;28;45257;-73
2022/10/19 07:28:00;;;;;;;1.73;1.63;;;20.20;59.10;;;;;;5086502;28;46409;-72
2022/10/19 07:30:27;;;;;;;1.65;1.55;;;20.20;59.10;;;;;;5086624;28;45358;-72
2022/10/19 07:32:54;;;;;;;1.65;1.55;;;20.20;59.10;;;;;;5086727;28;45252;-73
2022/10/19 07:35:21;;;;;;;2.75;1.90;;;20.20;59.10;;;;;;5086839;28;45289;-72
2022/10/19 07:37:48;;;;;;;1.88;1.75;;;20.20;59.10;;;;;;5086613;28;46788;-72
2022/10/19 07:40:15;;;;;;;2.83;1.60;;;20.20;59.00;;;;;;5086544;28;45227;-72
2022/10/19 07:42:42;;;;;;;1.90;1.55;;;20.20;59.00;;;;;;5086354;28;45183;-73
2022/10/19 07:45:10;;;;;;;1.50;1.40;;;20.20;59.60;;;;;;5086712;28;45288;-73
2022/10/19 07:47:37;;;;;;;2.00;1.80;;;20.20;59.00;;;;;;5086331;28;46400;-72
2022/10/19 07:50:05;;;;;;;1.40;1.40;;;20.20;59.10;;;;;;5086223;28;45208;-71
2022/10/19 07:52:32;;;;;;;1.77;1.67;;;20.20;59.10;;;;;;5086470;28;45210;-71
2022/10/19 07:54:59;;;;;;;2.05;1.67;;;20.20;59.00;;;;;;5086346;28;45556;-71
2022/10/19 07:57:26;;;;;;;1.83;1.73;;;20.20;59.10;;;;;;5085915;28;45555;-73
2022/10/19 07:59:53;;;;;;;1.73;1.63;;;20.20;59.00;;;;;;5085777;28;45302;-73
2022/10/19 08:02:21;;;;;;;2.63;1.83;;;20.20;59.00;;;;;;5086391;28;45300;-71
2022/10/19 08:04:48;;;;;;;2.10;2.00;;;20.20;59.30;;;;;;5086224;28;45312;-72
2022/10/19 08:07:15;;;;;;;2.22;1.88;;;20.20;59.20;;;;;;5085713;28;45766;-72
2022/10/19 08:09:42;;;;;;;2.00;1.67;;;20.20;59.10;;;;;;5086139;28;45403;-71
2022/10/19 08:12:09;;;;;;;1.90;1.70;;;20.20;59.10;;;;;;5086218;28;45221;-71
2022/10/19 08:14:36;;;;;;;1.88;1.77;;;20.20;59.10;;;;;;5086181;28;45565;-71
2022/10/19 08:17:03;;;;;;;2.88;1.60;;;20.20;59.20;;;;;;5085993;28;46383;-71
2022/10/19 08:19:31;;;;;;;2.50;1.50;;;20.20;59.30;;;;;;5086281;28;45275;-71
2022/10/19 08:21:58;;;;;;;1.70;1.60;;;20.20;59.20;;;;;;5086072;28;45222;-71
2022/10/19 08:24:25;;;;;;;1.95;1.70;;;20.20;59.20;;;;;;5086147;28;45170;-73
2022/10/19 08:26:51;;;;;;;2.58;1.70;;;20.20;59.20;;;;;;5085499;28;45320;-73
2022/10/19 08:29:19;;;;;;;1.65;1.55;;;20.20;59.30;;;;;;5084519;28;45319;-72
2022/10/19 08:31:47;;;;;;;2.42;2.00;;;20.20;59.40;;;;;;5086291;28;45319;-71
2022/10/19 08:34:13;;;;;;;2.83;1.63;;;20.20;59.40;;;;;;5085867;27;45368;-73
2022/10/19 08:36:42;;;;;;;3.47;2.10;;;20.20;59.40;;;;;;5074903;28;45198;-72
2022/10/19 08:39:11;;;;;;;4.53;1.80;;;20.20;59.30;;;;;;5077466;28;45344;-70
2022/10/19 08:41:43;;;;;;;2.63;1.70;;;20.20;59.30;;;;;;5085102;28;45181;-72
2022/10/19 08:44:19;;;;;;;5.05;2.00;;;20.20;59.40;;;;;;5085676;27;45329;-72
2022/10/19 08:46:49;;;;;;;6.22;1.98;;;20.20;59.40;;;;;;5085201;28;46506;-72
2022/10/19 08:49:21;;;;;;;2.08;1.92;;;20.20;59.50;;;;;;5081864;28;45272;-71
2022/10/19 08:51:51;;;;;;;1.80;1.70;;;20.20;59.50;;;;;;5066813;27;45266;-72
2022/10/19 08:54:18;;;;;;;3.65;2.00;;;20.20;59.60;;;;;;5082045;28;45491;-72
2022/10/19 08:56:48;;;;;;;3.40;2.08;;;20.20;59.60;;;;;;5085148;28;47588;-72
2022/10/19 08:59:25;;;;;;;2.80;1.85;;;20.20;59.70;;;;;;5085231;28;45315;-72
2022/10/19 09:01:53;;;;;;;4.43;1.90;;;20.20;59.60;;;;;;5084885;28;45339;-73
2022/10/19 09:04:22;;;;;;;2.60;2.00;;;20.20;59.60;;;;;;5082437;28;45444;-70
2022/10/19 09:07:00;;;;;;;2.67;1.95;;;20.20;59.70;;;;;;5085350;28;47431;-71
2022/10/19 09:09:28;;;;;;;2.05;1.80;;;20.20;60.20;;;;;;5085005;28;45222;-71
2022/10/19 09:11:56;;;;;;;4.50;1.80;;;20.20;59.60;;;;;;5085316;28;45359;-71
2022/10/19 09:14:27;;;;;;;5.07;1.95;;;20.30;59.80;;;;;;5085585;28;45412;-72
2022/10/19 09:16:54;;;;;;;2.25;1.80;;;20.30;59.80;;;;;;5085066;28;47596;-71
2022/10/19 09:19:24;;;;;;;2.58;2.38;;;20.30;59.70;;;;;;5084902;28;45425;-72
2022/10/19 09:21:51;;;;;;;5.38;2.40;;;20.20;59.90;;;;;;5085378;27;45328;-70
2022/10/19 09:24:29;;;;;;;3.60;2.63;;;20.20;61.10;;;;;;5085043;28;45372;-71
2022/10/19 09:26:57;;;;;;;3.00;2.70;;;20.30;60.60;;;;;;5085004;28;45366;-71
2022/10/19 09:29:26;;;;;;;3.45;2.88;;;20.30;60.80;;;;;;5084432;28;45305;-71
2022/10/19 09:31:56;;;;;;;4.45;3.10;;;20.20;61.60;;;;;;5088331;27;45507;-72
2022/10/19 09:34:26;;;;;;;3.50;3.10;;;20.20;61.40;;;;;;5082351;27;45403;-72
2022/10/19 09:36:54;;;;;;;3.38;3.08;;;20.20;61.40;;;;;;5072357;28;45265;-72
2022/10/19 09:39:21;;;;;;;4.78;3.00;;;20.20;61.30;;;;;;5066612;28;45324;-71
2022/10/19 09:41:52;;;;;;;4.28;3.40;;;20.20;61.30;;;;;;5088565;28;45297;-72
2022/10/19 09:44:18;;;;;;;3.30;3.00;;;20.20;61.70;;;;;;5087858;28;45308;-72
2022/10/19 09:46:50;;;;;;;4.30;2.88;;;20.20;61.70;;;;;;5088043;28;46374;-71
2022/10/19 09:49:18;;;;;;;4.10;2.63;;;20.20;61.60;;;;;;5088008;28;45272;-71
2022/10/19 09:51:51;;;;;;;2.65;2.45;;;20.20;61.30;;;;;;5088204;28;45315;-71
2022/10/19 09:54:31;;;;;;;2.42;2.22;;;20.20;61.20;;;;;;5088561;28;45448;-72
2022/10/19 09:57:00;;;;;;;3.30;2.50;;;20.20;61.00;;;;;;5088104;28;47547;-72
2022/10/19 09:59:29;;;;;;;2.53;2.28;;;20.20;61.00;;;;;;5088098;28;45279;-71
2022/10/19 10:02:03;;;;;;;3.90;2.15;;;20.20;61.00;;;;;;5088341;28;45324;-72
2022/10/19 10:04:30;;;;;;;2.35;2.15;;;20.20;60.90;;;;;;5088353;28;45293;-73
2022/10/19 10:06:57;;;;;;;4.28;2.00;;;20.20;60.90;;;;;;5087935;28;45547;-72
2022/10/19 10:09:26;;;;;;;3.53;2.25;;;20.20;60.90;;;;;;5081349;28;45210;-71
2022/10/19 10:11:53;;;;;;;1.90;1.80;;;20.20;60.80;;;;;;5067587;28;45242;-73
2022/10/19 10:14:23;;;;;;;2.67;2.00;;;20.20;60.80;;;;;;5068007;28;45308;-72
2022/10/19 10:16:55;;;;;;;3.50;2.30;;;20.20;60.80;;;;;;5067459;28;46708;-73
2022/10/19 10:19:21;;;;;;;4.95;2.28;;;20.20;60.70;;;;;;5067337;28;45307;-72
2022/10/19 10:21:49;;;;;;;2.25;2.05;;;20.30;60.80;;;;;;5067842;28;45284;-72
2022/10/19 10:24:17;;;;;;;2.03;1.70;;;20.30;60.70;;;;;;5067561;28;45457;-73
2022/10/19 10:26:45;;;;;;;2.42;1.90;;;20.30;60.70;;;;;;5067259;28;45493;-72
2022/10/19 10:29:21;;;;;;;2.35;2.15;;;20.30;60.60;;;;;;5067096;28;45317;-72
2022/10/19 10:31:49;;;;;;;2.25;2.05;;;20.30;60.60;;;;;;5067399;28;45296;-73
2022/10/19 10:34:18;;;;;;;2.40;2.00;;;20.30;60.60;;;;;;5067340;28;45236;-72
2022/10/19 10:36:48;;;;;;;2.58;2.03;;;20.30;60.60;;;;;;5078225;28;46424;-73
2022/10/19 10:39:15;;;;;;;2.17;2.08;;;20.30;60.70;;;;;;5087504;28;45155;-72
2022/10/19 10:41:43;;;;;;;2.00;1.90;;;20.30;60.60;;;;;;5087618;28;45233;-72
2022/10/19 10:44:17;;;;;;;2.75;2.40;;;20.30;60.70;;;;;;5087179;28;45477;-73
2022/10/19 10:46:50;;;;;;;2.45;2.22;;;20.30;60.60;;;;;;5087114;28;46918;-72
2022/10/19 10:49:20;;;;;;;8.25;2.60;;;20.30;60.60;;;;;;5087168;28;45282;-72
2022/10/19 10:51:51;;;;;;;2.42;2.30;;;20.30;61.30;;;;;;5086297;27;45438;-73
2022/10/19 10:54:19;;;;;;;2.92;2.22;;;20.30;60.50;;;;;;5087402;28;45151;-73
2022/10/19 10:56:57;;;;;;;2.40;2.20;;;20.30;60.60;;;;;;5087116;28;46433;-73
2022/10/19 10:59:26;;;;;;;2.42;2.20;;;20.30;60.50;;;;;;5087105;28;45315;-72
2022/10/19 11:01:58;;;;;;;2.70;2.50;;;20.30;60.50;;;;;;5087304;28;45206;-72
2022/10/19 11:04:28;;;;;;;2.58;2.25;;;20.30;60.60;;;;;;5087249;28;45363;-72
2022/10/19 11:06:56;;;;;;;3.13;2.83;;;20.30;60.60;;;;;;5086898;28;47316;-72
2022/10/19 11:09:25;;;;;;;2.67;2.47;;;20.30;60.50;;;;;;5086491;28;45352;-72
2022/10/19 11:11:54;;;;;;;3.85;2.70;;;20.30;61.10;;;;;;5087028;28;45176;-72
2022/10/19 11:14:26;;;;;;;4.05;2.90;;;20.30;60.50;;;;;;5086961;28;45380;-73
2022/10/19 11:16:55;;;;;;;2.70;2.50;;;20.30;60.50;;;;;;5086477;28;45180;-73
2022/10/19 11:19:23;;;;;;;4.45;2.75;;;20.30;60.40;;;;;;5086503;28;45310;-72
2022/10/19 11:21:54;;;;;;;2.80;2.50;;;20.40;60.50;;;;;;5087004;28;45202;-72
2022/10/19 11:24:22;;;;;;;3.25;2.75;;;20.40;60.50;;;;;;5087003;28;45296;-73
2022/10/19 11:26:59;;;;;;;2.85;2.58;;;20.40;61.30;;;;;;5086454;28;45502;-72
2022/10/19 11:29:34;;;;;;;3.25;2.55;;;20.40;60.40;;;;;;5086598;28;45237;-72
2022/10/19 11:32:02;;;;;;;2.70;2.50;;;20.40;60.40;;;;;;5086808;28;45249;-72
2022/10/19 11:34:43;;;;;;;4.10;2.50;;;20.40;60.40;;;;;;5086820;28;45240;-73
2022/10/19 11:37:15;;;;;;;3.67;2.83;;;20.40;60.40;;;;;;5086259;28;45528;-71
2022/10/19 11:39:47;;;;;;;3.00;2.80;;;20.40;60.50;;;;;;5086568;28;45314;-73
2022/10/19 11:42:17;;;;;;;5.07;2.50;;;20.40;60.40;;;;;;5086483;28;45371;-72
2022/10/19 11:44:51;;;;;;;3.10;2.40;;;20.40;60.40;;;;;;5086720;28;45347;-71
2022/10/19 11:47:29;;;;;;;3.13;2.78;;;20.40;60.30;;;;;;5086072;28;46639;-73
2022/10/19 11:50:01;;;;;;;2.70;2.50;;;20.40;60.30;;;;;;5085307;28;45243;-72
2022/10/19 11:52:32;;;;;;;3.03;2.72;;;20.40;60.40;;;;;;5086402;28;44732;-73
2022/10/19 11:55:03;;;;;;;2.90;2.60;;;20.40;60.40;;;;;;5085359;28;45554;-72
2022/10/19 11:57:31;;;;;;;3.75;2.80;;;20.40;60.30;;;;;;5085964;28;45476;-73
2022/10/19 12:00:06;;;;;;;6.75;2.63;;;20.40;60.40;;;;;;5086078;28;45188;-71
2022/10/19 12:02:57;;;;;;;3.53;2.67;;;20.40;60.30;;;;;;5065781;28;45236;-72
2022/10/19 12:05:25;;;;;;;2.75;2.55;;;20.40;60.30;;;;;;5069878;28;45297;-73
2022/10/19 12:07:58;;;;;;;3.25;2.42;;;20.40;60.40;;;;;;5085377;28;46687;-73
2022/10/19 12:10:28;;;;;;;2.92;2.58;;;20.50;61.10;;;;;;5085935;28;45426;-72
2022/10/19 12:12:57;;;;;;;3.45;2.78;;;20.50;60.60;;;;;;5086311;28;45189;-73
2022/10/19 12:15:28;;;;;;;4.10;2.70;;;20.50;60.40;;;;;;5086252;28;45444;-72
2022/10/19 12:17:59;;;;;;;3.90;2.72;;;20.50;60.50;;;;;;5085300;28;45905;-72
2022/10/19 12:20:37;;;;;;;6.93;3.92;;;20.50;60.50;;;;;;5085477;28;45258;-72
2022/10/19 12:23:13;;;;;;;7.38;5.28;;;20.50;60.80;;;;;;5085773;28;45300;-73
2022/10/19 12:25:40;;;;;;;8.80;6.50;;;20.50;61.70;;;;;;5085799;28;45400;-70
2022/10/19 12:28:08;;;;;;;7.20;6.00;;;20.40;62.00;;;;;;5085817;28;46477;-72
2022/10/19 12:30:35;;;;;;;7.20;5.75;;;20.40;62.40;;;;;;5085535;28;45395;-72
2022/10/19 12:33:09;;;;;;;11.90;6.47;;;20.40;63.50;;;;;;5084171;28;45502;-72
2022/10/19 12:35:47;;;;;;;8.82;5.63;;;20.40;63.10;;;;;;5084655;28;45582;-73
2022/10/19 12:38:16;;;;;;;6.18;4.93;;;20.40;62.90;;;;;;5065148;28;46761;-72
2022/10/19 12:40:45;;;;;;;8.02;5.75;;;20.40;62.90;;;;;;5065214;28;45392;-73
2022/10/19 12:43:13;;;;;;;6.60;5.07;;;20.40;63.20;;;;;;5065153;28;45130;-74
2022/10/19 12:45:41;;;;;;;7.00;5.53;;;20.40;63.10;;;;;;5078057;28;45624;-73
2022/10/19 12:48:20;;;;;;;5.60;5.00;;;20.40;63.20;;;;;;5084426;28;45300;-73
2022/10/19 12:51:04;;;;;;;7.90;5.38;;;20.40;63.10;;;;;;5084810;28;45456;-73
2022/10/19 12:53:34;;;;;;;6.07;4.85;;;20.40;63.30;;;;;;5085282;28;45332;-72
2022/10/19 12:56:02;;;;;;;7.22;5.28;;;20.40;63.10;;;;;;5085310;28;45264;-73